Flight Information

DEPARTURE
COLORADO SPRINGS, CO
Elevation:
6187
Runways:
13/31 - 8269x150 - ASPH-G
17L/35R - 13501x150 - CONC-G
17R/35L - 11022x150 - ASPH-G
ATIS:
125 719-596-7040
Clearance Delivery:
134.45
Ground:
121.7
Tower:
SPRINGS TOWER 119.9
DESTINATION
,
Elevation:
TPA:
1000 (est.)


6084.1 NM81° True-11° Var69° HDG

Flight Plan:
(click to file on line)

1. Type
2. Aircraft Identification
3. Aircraft Type / Special Equipment
4. True Airspeed
kts
5. Departure Airport
(ICAO code)
6. Arriving Airport
(ICAO code)
7. Cruising Altitude
ft
8. Alternate Airport
(ICAO code)
9. Route of Flight
10. Remarks


00:00:00 Departure ATIS: Destination ATIS:

Clearance Limit:
Route:
Altitude: Expect in minutes
Frequency:
Transponder: (7500 Hijack / 7600 Lost Comms / 7700 Emergency)


KCOS 261354Z 13010KT 10SM -RA OVC023 14/09 A3056 RMK AO2 RAB24 SLP301 PCPN VRY LGT P0000 T01390089 $
Time: 2022-06-26T13:54:00Z
1656254591
Winds: 130 @ 10 kts
Visibility: 10.0 sm
Clouds (AGL): OVC 2300
Temperature: 13.9 C
Dew Point: 8.9 C
Pressure: 30.561024 in Hgbr


Notes:

Data extracted from FAA Digital Chart Supplement. Effective: 0901Z Thursday, 27 JAN 2022 to 0900z Thursday, 24 MAR 2022
Current ATIS data is provided courtisy of PilotEdge.